To NAV CANADA Home Page Login to a new session Search on AWWS site Feedback and Comments Disclaimer Vers la page française équivalente Tips FAQ What's new on the site To the Forecasts and Observations / NOTAM section To "File a Flight Plan" website Publications and other links Update of the User's profile FIC Telephone Numbers My Weather Data Folder Route Weather Data Regional Weather Data Local Weather Data To the Forecasts and Observations / NOTAM section
Request Generated 09/01/2016 at 03:34:35 UTC . Weather information available at that time is displayed.

METAR/TAF

BRANDON MUNICIPALITY/MB    

METAR CYBR 010300Z 08012KT 15SM SCT130 BKN240 15/12 A3022 RMK AC3CI4
SLP242=
METAR CYBR 010200Z 08013KT 15SM SCT130 BKN240 16/12 A3022 RMK AC3CI4
SLP243 DENSITY ALT 1400FT=
METAR CYBR 010100Z 09012KT 15SM SCT120 BKN240 19/13 A3020 RMK AC3CI3
SLP238 DENSITY ALT 1700FT=

TAF CYBR 312338Z 0100/0112 10012KT P6SM FEW060 SCT120 OVC240 PROB30
0100/0102 VRB15G25KT 6SM TSRA BKN060CB BKN120
RMK NXT FCST BY 010600Z=
Your time UTC time
Weather data provided by Environment Canada and NAV CANADA